sensor_id;sensor_type;location;lat;lon;timestamp;P1;durP1;ratioP1;P2;durP2;ratioP2
59310;SDS011;45078;51.654;21.250;2023-07-31T00:01:25;3.58;;;2.55;;
59310;SDS011;45078;51.654;21.250;2023-07-31T00:03:51;7.47;;;2.63;;
59310;SDS011;45078;51.654;21.250;2023-07-31T00:06:16;4.75;;;2.60;;
59310;SDS011;45078;51.654;21.250;2023-07-31T00:08:42;4.45;;;2.58;;
59310;SDS011;45078;51.654;21.250;2023-07-31T00:11:08;4.88;;;2.40;;
59310;SDS011;45078;51.654;21.250;2023-07-31T00:13:33;3.50;;;2.38;;
59310;SDS011;45078;51.654;21.250;2023-07-31T00:15:59;12.18;;;2.83;;
59310;SDS011;45078;51.654;21.250;2023-07-31T00:18:25;5.35;;;2.38;;
59310;SDS011;45078;51.654;21.250;2023-07-31T00:20:50;3.47;;;2.40;;
59310;SDS011;45078;51.654;21.250;2023-07-31T00:23:16;3.13;;;2.13;;
59310;SDS011;45078;51.654;21.250;2023-07-31T00:25:42;3.70;;;2.35;;
59310;SDS011;45078;51.654;21.250;2023-07-31T00:28:08;4.88;;;2.17;;
59310;SDS011;45078;51.654;21.250;2023-07-31T00:30:33;3.17;;;2.10;;
59310;SDS011;45078;51.654;21.250;2023-07-31T00:32:59;4.50;;;2.20;;
59310;SDS011;45078;51.654;21.250;2023-07-31T00:35:25;4.43;;;2.05;;
59310;SDS011;45078;51.654;21.250;2023-07-31T00:37:51;5.20;;;2.15;;
59310;SDS011;45078;51.654;21.250;2023-07-31T00:40:16;7.47;;;2.50;;
59310;SDS011;45078;51.654;21.250;2023-07-31T00:42:42;2.95;;;2.08;;
59310;SDS011;45078;51.654;21.250;2023-07-31T00:45:11;4.70;;;2.47;;
59310;SDS011;45078;51.654;21.250;2023-07-31T00:47:37;3.20;;;2.00;;
59310;SDS011;45078;51.654;21.250;2023-07-31T00:50:03;3.38;;;2.42;;
59310;SDS011;45078;51.654;21.250;2023-07-31T00:52:29;2.83;;;2.15;;
59310;SDS011;45078;51.654;21.250;2023-07-31T00:54:54;3.40;;;2.17;;
59310;SDS011;45078;51.654;21.250;2023-07-31T00:57:20;2.75;;;2.20;;
59310;SDS011;45078;51.654;21.250;2023-07-31T00:59:46;4.90;;;2.20;;
59310;SDS011;45078;51.654;21.250;2023-07-31T01:02:11;2.65;;;2.03;;
59310;SDS011;45078;51.654;21.250;2023-07-31T01:04:37;2.58;;;2.08;;
59310;SDS011;45078;51.654;21.250;2023-07-31T01:12:27;4.85;;;2.20;;
59310;SDS011;45078;51.654;21.250;2023-07-31T01:17:30;3.90;;;2.10;;
59310;SDS011;45078;51.654;21.250;2023-07-31T01:19:55;6.03;;;2.58;;
59310;SDS011;45078;51.654;21.250;2023-07-31T01:25:05;4.57;;;2.28;;
59310;SDS011;45078;51.654;21.250;2023-07-31T01:27:39;3.50;;;2.60;;
59310;SDS011;45078;51.654;21.250;2023-07-31T01:30:41;3.88;;;2.40;;
59310;SDS011;45078;51.654;21.250;2023-07-31T01:33:10;4.00;;;2.78;;
59310;SDS011;45078;51.654;21.250;2023-07-31T01:35:37;4.70;;;2.63;;
59310;SDS011;45078;51.654;21.250;2023-07-31T01:38:04;6.22;;;2.67;;
59310;SDS011;45078;51.654;21.250;2023-07-31T01:40:30;7.50;;;2.90;;
59310;SDS011;45078;51.654;21.250;2023-07-31T01:42:56;4.43;;;2.50;;
59310;SDS011;45078;51.654;21.250;2023-07-31T01:45:21;5.55;;;2.60;;
59310;SDS011;45078;51.654;21.250;2023-07-31T01:47:47;3.55;;;2.80;;
59310;SDS011;45078;51.654;21.250;2023-07-31T01:50:13;4.30;;;2.53;;
59310;SDS011;45078;51.654;21.250;2023-07-31T01:52:39;4.82;;;2.90;;
59310;SDS011;45078;51.654;21.250;2023-07-31T01:55:04;4.22;;;2.75;;
59310;SDS011;45078;51.654;21.250;2023-07-31T01:57:30;5.03;;;2.78;;
59310;SDS011;45078;51.654;21.250;2023-07-31T01:59:56;4.68;;;2.72;;
59310;SDS011;45078;51.654;21.250;2023-07-31T02:02:22;3.67;;;2.78;;
59310;SDS011;45078;51.654;21.250;2023-07-31T02:04:48;5.95;;;3.08;;
59310;SDS011;45078;51.654;21.250;2023-07-31T02:07:14;4.45;;;2.42;;
59310;SDS011;45078;51.654;21.250;2023-07-31T02:09:40;4.43;;;2.83;;
59310;SDS011;45078;51.654;21.250;2023-07-31T02:12:06;5.55;;;3.05;;
59310;SDS011;45078;51.654;21.250;2023-07-31T02:14:33;3.40;;;2.60;;
59310;SDS011;45078;51.654;21.250;2023-07-31T02:16:59;6.30;;;3.05;;
59310;SDS011;45078;51.654;21.250;2023-07-31T02:19:25;5.40;;;2.90;;
59310;SDS011;45078;51.654;21.250;2023-07-31T02:21:51;5.95;;;2.97;;
59310;SDS011;45078;51.654;21.250;2023-07-31T02:24:17;6.00;;;3.35;;
59310;SDS011;45078;51.654;21.250;2023-07-31T02:26:43;4.47;;;2.92;;
59310;SDS011;45078;51.654;21.250;2023-07-31T02:29:08;4.45;;;2.72;;
59310;SDS011;45078;51.654;21.250;2023-07-31T02:31:34;3.45;;;2.67;;
59310;SDS011;45078;51.654;21.250;2023-07-31T02:34:00;6.50;;;2.92;;
59310;SDS011;45078;51.654;21.250;2023-07-31T02:36:25;4.63;;;2.75;;
59310;SDS011;45078;51.654;21.250;2023-07-31T02:38:51;3.88;;;2.78;;
59310;SDS011;45078;51.654;21.250;2023-07-31T02:41:17;6.65;;;3.03;;
59310;SDS011;45078;51.654;21.250;2023-07-31T02:43:43;4.57;;;2.90;;
59310;SDS011;45078;51.654;21.250;2023-07-31T02:46:09;7.57;;;3.15;;
59310;SDS011;45078;51.654;21.250;2023-07-31T02:48:35;4.20;;;2.83;;
59310;SDS011;45078;51.654;21.250;2023-07-31T02:51:00;6.10;;;3.10;;
59310;SDS011;45078;51.654;21.250;2023-07-31T02:53:26;5.55;;;3.22;;
59310;SDS011;45078;51.654;21.250;2023-07-31T02:55:52;6.30;;;3.28;;
59310;SDS011;45078;51.654;21.250;2023-07-31T02:58:18;4.65;;;2.95;;
59310;SDS011;45078;51.654;21.250;2023-07-31T03:00:44;6.05;;;3.05;;
59310;SDS011;45078;51.654;21.250;2023-07-31T03:03:09;5.05;;;3.67;;
59310;SDS011;45078;51.654;21.250;2023-07-31T03:05:35;5.43;;;2.95;;
59310;SDS011;45078;51.654;21.250;2023-07-31T03:08:01;6.00;;;3.45;;
59310;SDS011;45078;51.654;21.250;2023-07-31T03:10:27;4.68;;;3.65;;
59310;SDS011;45078;51.654;21.250;2023-07-31T03:12:52;8.93;;;3.70;;
59310;SDS011;45078;51.654;21.250;2023-07-31T03:15:18;6.00;;;3.45;;
59310;SDS011;45078;51.654;21.250;2023-07-31T03:17:44;7.72;;;3.60;;
59310;SDS011;45078;51.654;21.250;2023-07-31T03:20:10;6.75;;;3.72;;
59310;SDS011;45078;51.654;21.250;2023-07-31T03:22:36;6.25;;;3.47;;
59310;SDS011;45078;51.654;21.250;2023-07-31T03:25:04;6.93;;;3.67;;
59310;SDS011;45078;51.654;21.250;2023-07-31T03:27:31;7.03;;;3.55;;
59310;SDS011;45078;51.654;21.250;2023-07-31T03:29:56;4.50;;;3.17;;
59310;SDS011;45078;51.654;21.250;2023-07-31T03:32:24;4.78;;;3.10;;
59310;SDS011;45078;51.654;21.250;2023-07-31T03:34:50;4.68;;;3.45;;
59310;SDS011;45078;51.654;21.250;2023-07-31T03:37:15;6.25;;;3.67;;
59310;SDS011;45078;51.654;21.250;2023-07-31T03:39:41;5.75;;;3.40;;
59310;SDS011;45078;51.654;21.250;2023-07-31T03:42:07;5.40;;;3.20;;
59310;SDS011;45078;51.654;21.250;2023-07-31T03:44:33;8.05;;;3.80;;
59310;SDS011;45078;51.654;21.250;2023-07-31T03:46:58;5.40;;;3.65;;
59310;SDS011;45078;51.654;21.250;2023-07-31T03:49:24;5.80;;;3.22;;
59310;SDS011;45078;51.654;21.250;2023-07-31T03:51:50;4.75;;;3.55;;
59310;SDS011;45078;51.654;21.250;2023-07-31T03:54:15;7.13;;;3.78;;
59310;SDS011;45078;51.654;21.250;2023-07-31T03:56:41;6.85;;;3.50;;
59310;SDS011;45078;51.654;21.250;2023-07-31T03:59:07;4.65;;;3.40;;
59310;SDS011;45078;51.654;21.250;2023-07-31T04:01:32;6.40;;;3.20;;
59310;SDS011;45078;51.654;21.250;2023-07-31T04:03:58;6.32;;;3.63;;
59310;SDS011;45078;51.654;21.250;2023-07-31T04:06:24;8.77;;;3.75;;
59310;SDS011;45078;51.654;21.250;2023-07-31T04:08:49;4.82;;;3.25;;
59310;SDS011;45078;51.654;21.250;2023-07-31T04:11:15;5.10;;;3.25;;
59310;SDS011;45078;51.654;21.250;2023-07-31T04:13:41;12.52;;;3.80;;
59310;SDS011;45078;51.654;21.250;2023-07-31T04:16:07;6.85;;;3.10;;
59310;SDS011;45078;51.654;21.250;2023-07-31T04:18:32;6.10;;;3.47;;
59310;SDS011;45078;51.654;21.250;2023-07-31T04:20:58;4.85;;;3.45;;
59310;SDS011;45078;51.654;21.250;2023-07-31T04:23:26;6.15;;;3.47;;
59310;SDS011;45078;51.654;21.250;2023-07-31T04:25:51;7.72;;;3.42;;
59310;SDS011;45078;51.654;21.250;2023-07-31T04:28:17;5.70;;;3.90;;
59310;SDS011;45078;51.654;21.250;2023-07-31T04:30:43;4.65;;;3.50;;
59310;SDS011;45078;51.654;21.250;2023-07-31T04:33:09;5.90;;;3.58;;
59310;SDS011;45078;51.654;21.250;2023-07-31T04:35:34;7.07;;;3.40;;
59310;SDS011;45078;51.654;21.250;2023-07-31T04:38:00;5.07;;;3.55;;
59310;SDS011;45078;51.654;21.250;2023-07-31T04:40:26;9.13;;;3.33;;
59310;SDS011;45078;51.654;21.250;2023-07-31T04:42:52;5.78;;;3.10;;
59310;SDS011;45078;51.654;21.250;2023-07-31T04:45:17;6.47;;;3.38;;
59310;SDS011;45078;51.654;21.250;2023-07-31T04:47:43;5.13;;;3.38;;
59310;SDS011;45078;51.654;21.250;2023-07-31T04:50:09;5.05;;;3.42;;
59310;SDS011;45078;51.654;21.250;2023-07-31T04:52:35;4.93;;;3.60;;
59310;SDS011;45078;51.654;21.250;2023-07-31T04:55:01;6.82;;;3.70;;
59310;SDS011;45078;51.654;21.250;2023-07-31T04:57:27;4.45;;;3.15;;
59310;SDS011;45078;51.654;21.250;2023-07-31T04:59:52;4.53;;;2.88;;
59310;SDS011;45078;51.654;21.250;2023-07-31T05:02:18;4.30;;;3.10;;
59310;SDS011;45078;51.654;21.250;2023-07-31T05:04:44;5.30;;;3.05;;
59310;SDS011;45078;51.654;21.250;2023-07-31T05:07:10;8.52;;;3.20;;
59310;SDS011;45078;51.654;21.250;2023-07-31T05:09:35;4.22;;;3.00;;
59310;SDS011;45078;51.654;21.250;2023-07-31T05:12:01;5.63;;;3.40;;
59310;SDS011;45078;51.654;21.250;2023-07-31T05:14:29;5.65;;;3.03;;
59310;SDS011;45078;51.654;21.250;2023-07-31T05:16:55;6.80;;;2.70;;
59310;SDS011;45078;51.654;21.250;2023-07-31T05:19:20;5.90;;;2.78;;
59310;SDS011;45078;51.654;21.250;2023-07-31T05:21:46;4.60;;;3.00;;
59310;SDS011;45078;51.654;21.250;2023-07-31T05:24:12;3.88;;;2.80;;
59310;SDS011;45078;51.654;21.250;2023-07-31T05:26:37;4.15;;;2.60;;
59310;SDS011;45078;51.654;21.250;2023-07-31T05:29:03;4.00;;;2.90;;
59310;SDS011;45078;51.654;21.250;2023-07-31T05:31:29;7.93;;;3.20;;
59310;SDS011;45078;51.654;21.250;2023-07-31T05:33:57;3.97;;;2.78;;
59310;SDS011;45078;51.654;21.250;2023-07-31T05:36:23;5.30;;;2.80;;
59310;SDS011;45078;51.654;21.250;2023-07-31T05:38:48;3.40;;;2.25;;
59310;SDS011;45078;51.654;21.250;2023-07-31T05:41:14;4.13;;;2.63;;
59310;SDS011;45078;51.654;21.250;2023-07-31T05:43:41;4.55;;;2.63;;
59310;SDS011;45078;51.654;21.250;2023-07-31T05:46:09;6.10;;;2.90;;
59310;SDS011;45078;51.654;21.250;2023-07-31T05:48:35;5.57;;;2.53;;
59310;SDS011;45078;51.654;21.250;2023-07-31T05:51:00;5.60;;;2.78;;
59310;SDS011;45078;51.654;21.250;2023-07-31T05:53:26;5.30;;;2.42;;
59310;SDS011;45078;51.654;21.250;2023-07-31T05:55:52;4.63;;;2.72;;
59310;SDS011;45078;51.654;21.250;2023-07-31T05:58:17;3.67;;;2.55;;
59310;SDS011;45078;51.654;21.250;2023-07-31T06:00:43;4.13;;;2.63;;
59310;SDS011;45078;51.654;21.250;2023-07-31T06:03:09;6.28;;;3.15;;
59310;SDS011;45078;51.654;21.250;2023-07-31T06:05:35;4.30;;;2.78;;
59310;SDS011;45078;51.654;21.250;2023-07-31T06:08:01;4.78;;;2.90;;
59310;SDS011;45078;51.654;21.250;2023-07-31T06:10:27;4.53;;;2.65;;
59310;SDS011;45078;51.654;21.250;2023-07-31T06:12:53;3.65;;;2.40;;
59310;SDS011;45078;51.654;21.250;2023-07-31T06:15:19;5.38;;;2.63;;
59310;SDS011;45078;51.654;21.250;2023-07-31T06:17:45;5.22;;;2.60;;
59310;SDS011;45078;51.654;21.250;2023-07-31T06:20:10;6.55;;;2.58;;
59310;SDS011;45078;51.654;21.250;2023-07-31T06:22:36;3.33;;;2.20;;
59310;SDS011;45078;51.654;21.250;2023-07-31T06:25:02;4.65;;;2.33;;
59310;SDS011;45078;51.654;21.250;2023-07-31T06:27:28;4.03;;;2.45;;
59310;SDS011;45078;51.654;21.250;2023-07-31T06:29:54;3.60;;;2.35;;
59310;SDS011;45078;51.654;21.250;2023-07-31T06:32:19;3.22;;;2.30;;
59310;SDS011;45078;51.654;21.250;2023-07-31T06:34:45;4.20;;;2.13;;
59310;SDS011;45078;51.654;21.250;2023-07-31T06:37:11;6.63;;;2.65;;
59310;SDS011;45078;51.654;21.250;2023-07-31T06:39:36;7.35;;;2.42;;
59310;SDS011;45078;51.654;21.250;2023-07-31T06:42:02;5.70;;;2.50;;
59310;SDS011;45078;51.654;21.250;2023-07-31T06:44:29;4.50;;;2.20;;
59310;SDS011;45078;51.654;21.250;2023-07-31T06:46:55;5.32;;;2.47;;
59310;SDS011;45078;51.654;21.250;2023-07-31T06:49:21;3.80;;;2.05;;
59310;SDS011;45078;51.654;21.250;2023-07-31T06:51:46;4.85;;;2.10;;
59310;SDS011;45078;51.654;21.250;2023-07-31T06:54:12;4.05;;;2.10;;
59310;SDS011;45078;51.654;21.250;2023-07-31T06:56:38;4.63;;;2.28;;
59310;SDS011;45078;51.654;21.250;2023-07-31T06:59:03;3.53;;;1.95;;
59310;SDS011;45078;51.654;21.250;2023-07-31T07:01:29;4.10;;;2.30;;
59310;SDS011;45078;51.654;21.250;2023-07-31T07:03:55;7.85;;;2.40;;
59310;SDS011;45078;51.654;21.250;2023-07-31T07:06:21;3.60;;;1.90;;
59310;SDS011;45078;51.654;21.250;2023-07-31T07:08:47;3.28;;;2.13;;
59310;SDS011;45078;51.654;21.250;2023-07-31T07:11:13;5.35;;;2.15;;
59310;SDS011;45078;51.654;21.250;2023-07-31T07:13:39;4.13;;;1.92;;
59310;SDS011;45078;51.654;21.250;2023-07-31T07:16:05;4.85;;;2.35;;
59310;SDS011;45078;51.654;21.250;2023-07-31T07:18:31;3.85;;;2.30;;
59310;SDS011;45078;51.654;21.250;2023-07-31T07:20:57;7.82;;;2.45;;
59310;SDS011;45078;51.654;21.250;2023-07-31T07:23:23;4.63;;;2.10;;
59310;SDS011;45078;51.654;21.250;2023-07-31T07:25:49;6.00;;;2.25;;
59310;SDS011;45078;51.654;21.250;2023-07-31T07:28:16;4.13;;;1.98;;
59310;SDS011;45078;51.654;21.250;2023-07-31T07:30:42;3.33;;;1.95;;
59310;SDS011;45078;51.654;21.250;2023-07-31T07:33:07;6.45;;;2.10;;
59310;SDS011;45078;51.654;21.250;2023-07-31T07:35:33;5.35;;;2.10;;
59310;SDS011;45078;51.654;21.250;2023-07-31T07:38:00;4.68;;;2.40;;
59310;SDS011;45078;51.654;21.250;2023-07-31T07:40:26;6.80;;;2.13;;
59310;SDS011;45078;51.654;21.250;2023-07-31T07:42:52;4.95;;;2.20;;
59310;SDS011;45078;51.654;21.250;2023-07-31T07:45:18;6.47;;;1.90;;
59310;SDS011;45078;51.654;21.250;2023-07-31T07:47:44;4.90;;;2.20;;
59310;SDS011;45078;51.654;21.250;2023-07-31T07:50:09;4.97;;;2.40;;
59310;SDS011;45078;51.654;21.250;2023-07-31T07:52:35;5.93;;;2.13;;
59310;SDS011;45078;51.654;21.250;2023-07-31T07:55:01;5.75;;;1.88;;
59310;SDS011;45078;51.654;21.250;2023-07-31T07:57:28;5.43;;;2.20;;
59310;SDS011;45078;51.654;21.250;2023-07-31T07:59:54;2.90;;;1.77;;
59310;SDS011;45078;51.654;21.250;2023-07-31T08:02:20;3.60;;;2.13;;
59310;SDS011;45078;51.654;21.250;2023-07-31T08:04:46;4.30;;;2.38;;
59310;SDS011;45078;51.654;21.250;2023-07-31T08:07:12;5.40;;;2.05;;
59310;SDS011;45078;51.654;21.250;2023-07-31T08:09:38;3.67;;;2.20;;
59310;SDS011;45078;51.654;21.250;2023-07-31T08:12:05;5.10;;;2.15;;
59310;SDS011;45078;51.654;21.250;2023-07-31T08:14:31;4.43;;;2.15;;
59310;SDS011;45078;51.654;21.250;2023-07-31T08:16:57;4.97;;;2.22;;
59310;SDS011;45078;51.654;21.250;2023-07-31T08:19:23;5.35;;;2.20;;
59310;SDS011;45078;51.654;21.250;2023-07-31T08:21:49;4.60;;;2.05;;
59310;SDS011;45078;51.654;21.250;2023-07-31T08:24:14;3.83;;;2.00;;
59310;SDS011;45078;51.654;21.250;2023-07-31T08:26:40;5.50;;;2.83;;
59310;SDS011;45078;51.654;21.250;2023-07-31T08:29:06;3.97;;;2.22;;
59310;SDS011;45078;51.654;21.250;2023-07-31T08:31:32;5.60;;;2.13;;
59310;SDS011;45078;51.654;21.250;2023-07-31T08:33:57;4.10;;;1.80;;
59310;SDS011;45078;51.654;21.250;2023-07-31T08:36:23;3.53;;;2.03;;
59310;SDS011;45078;51.654;21.250;2023-07-31T08:38:49;5.22;;;2.03;;
59310;SDS011;45078;51.654;21.250;2023-07-31T08:41:15;5.20;;;2.33;;
59310;SDS011;45078;51.654;21.250;2023-07-31T08:43:45;2.85;;;1.90;;
59310;SDS011;45078;51.654;21.250;2023-07-31T08:46:11;8.13;;;2.10;;
59310;SDS011;45078;51.654;21.250;2023-07-31T08:48:39;5.90;;;2.20;;
59310;SDS011;45078;51.654;21.250;2023-07-31T08:51:07;4.53;;;2.00;;
59310;SDS011;45078;51.654;21.250;2023-07-31T08:53:33;3.50;;;2.00;;
59310;SDS011;45078;51.654;21.250;2023-07-31T08:55:59;4.47;;;2.10;;
59310;SDS011;45078;51.654;21.250;2023-07-31T08:58:27;4.68;;;2.25;;
59310;SDS011;45078;51.654;21.250;2023-07-31T09:00:57;3.63;;;2.00;;
59310;SDS011;45078;51.654;21.250;2023-07-31T09:03:28;3.83;;;2.00;;
59310;SDS011;45078;51.654;21.250;2023-07-31T09:05:59;3.38;;;1.95;;
59310;SDS011;45078;51.654;21.250;2023-07-31T09:08:26;4.63;;;2.40;;
59310;SDS011;45078;51.654;21.250;2023-07-31T09:10:58;4.05;;;1.90;;
59310;SDS011;45078;51.654;21.250;2023-07-31T09:13:27;3.83;;;2.05;;
59310;SDS011;45078;51.654;21.250;2023-07-31T09:15:54;5.60;;;2.15;;
59310;SDS011;45078;51.654;21.250;2023-07-31T09:18:20;7.43;;;2.05;;
59310;SDS011;45078;51.654;21.250;2023-07-31T09:21:08;3.65;;;1.63;;
59310;SDS011;45078;51.654;21.250;2023-07-31T09:23:43;5.40;;;1.90;;
59310;SDS011;45078;51.654;21.250;2023-07-31T09:26:10;7.88;;;1.92;;
59310;SDS011;45078;51.654;21.250;2023-07-31T09:28:36;2.92;;;1.73;;
59310;SDS011;45078;51.654;21.250;2023-07-31T09:31:02;3.45;;;1.90;;
59310;SDS011;45078;51.654;21.250;2023-07-31T09:33:28;3.28;;;1.80;;
59310;SDS011;45078;51.654;21.250;2023-07-31T09:35:53;4.95;;;2.00;;
59310;SDS011;45078;51.654;21.250;2023-07-31T09:38:19;3.78;;;2.10;;
59310;SDS011;45078;51.654;21.250;2023-07-31T09:40:48;3.85;;;2.25;;
59310;SDS011;45078;51.654;21.250;2023-07-31T09:43:21;5.53;;;2.70;;
59310;SDS011;45078;51.654;21.250;2023-07-31T09:45:47;5.40;;;1.90;;
59310;SDS011;45078;51.654;21.250;2023-07-31T09:48:15;5.32;;;2.47;;
59310;SDS011;45078;51.654;21.250;2023-07-31T09:50:43;3.75;;;2.17;;
59310;SDS011;45078;51.654;21.250;2023-07-31T09:53:12;3.83;;;2.10;;
59310;SDS011;45078;51.654;21.250;2023-07-31T09:55:40;3.47;;;2.30;;
59310;SDS011;45078;51.654;21.250;2023-07-31T09:58:08;4.20;;;2.35;;
59310;SDS011;45078;51.654;21.250;2023-07-31T10:00:35;4.00;;;2.33;;
59310;SDS011;45078;51.654;21.250;2023-07-31T10:03:07;5.38;;;2.15;;
59310;SDS011;45078;51.654;21.250;2023-07-31T10:05:38;5.93;;;2.55;;
59310;SDS011;45078;51.654;21.250;2023-07-31T10:08:07;5.30;;;2.72;;
59310;SDS011;45078;51.654;21.250;2023-07-31T10:10:36;6.72;;;2.72;;
59310;SDS011;45078;51.654;21.250;2023-07-31T10:13:02;3.25;;;2.15;;
59310;SDS011;45078;51.654;21.250;2023-07-31T10:15:30;4.47;;;2.35;;
59310;SDS011;45078;51.654;21.250;2023-07-31T10:17:57;3.63;;;2.30;;
59310;SDS011;45078;51.654;21.250;2023-07-31T10:20:24;4.68;;;2.17;;
59310;SDS011;45078;51.654;21.250;2023-07-31T10:22:52;6.20;;;2.20;;
59310;SDS011;45078;51.654;21.250;2023-07-31T10:25:20;3.95;;;2.45;;
59310;SDS011;45078;51.654;21.250;2023-07-31T10:27:47;5.80;;;2.35;;
59310;SDS011;45078;51.654;21.250;2023-07-31T10:30:17;3.95;;;2.17;;
59310;SDS011;45078;51.654;21.250;2023-07-31T10:32:46;5.07;;;2.33;;
59310;SDS011;45078;51.654;21.250;2023-07-31T10:35:15;6.53;;;2.30;;
59310;SDS011;45078;51.654;21.250;2023-07-31T10:37:42;4.50;;;1.98;;
59310;SDS011;45078;51.654;21.250;2023-07-31T10:40:12;6.45;;;2.15;;
59310;SDS011;45078;51.654;21.250;2023-07-31T10:42:46;6.40;;;1.90;;
59310;SDS011;45078;51.654;21.250;2023-07-31T10:45:42;4.63;;;2.15;;
59310;SDS011;45078;51.654;21.250;2023-07-31T10:48:20;5.03;;;2.05;;
59310;SDS011;45078;51.654;21.250;2023-07-31T10:50:47;5.80;;;1.90;;
59310;SDS011;45078;51.654;21.250;2023-07-31T10:53:22;4.63;;;1.90;;
59310;SDS011;45078;51.654;21.250;2023-07-31T10:55:58;4.13;;;1.83;;
59310;SDS011;45078;51.654;21.250;2023-07-31T10:58:26;5.13;;;1.90;;
59310;SDS011;45078;51.654;21.250;2023-07-31T11:00:56;5.30;;;1.70;;
59310;SDS011;45078;51.654;21.250;2023-07-31T11:03:27;3.25;;;1.60;;
59310;SDS011;45078;51.654;21.250;2023-07-31T11:06:14;4.47;;;1.70;;
59310;SDS011;45078;51.654;21.250;2023-07-31T11:08:43;4.10;;;1.60;;
59310;SDS011;45078;51.654;21.250;2023-07-31T11:11:17;2.63;;;1.27;;
59310;SDS011;45078;51.654;21.250;2023-07-31T11:16:14;3.55;;;1.30;;
59310;SDS011;45078;51.654;21.250;2023-07-31T11:18:44;3.72;;;1.48;;
59310;SDS011;45078;51.654;21.250;2023-07-31T11:21:28;3.47;;;1.60;;
59310;SDS011;45078;51.654;21.250;2023-07-31T11:23:57;5.22;;;1.70;;
59310;SDS011;45078;51.654;21.250;2023-07-31T11:26:24;3.47;;;1.63;;
59310;SDS011;45078;51.654;21.250;2023-07-31T11:28:50;4.22;;;1.67;;
59310;SDS011;45078;51.654;21.250;2023-07-31T11:31:16;2.78;;;1.45;;
59310;SDS011;45078;51.654;21.250;2023-07-31T11:33:42;4.70;;;1.80;;
59310;SDS011;45078;51.654;21.250;2023-07-31T11:36:19;4.47;;;1.63;;
59310;SDS011;45078;51.654;21.250;2023-07-31T11:38:46;6.20;;;1.60;;
59310;SDS011;45078;51.654;21.250;2023-07-31T11:41:13;2.97;;;1.80;;
59310;SDS011;45078;51.654;21.250;2023-07-31T11:43:41;4.70;;;1.92;;
59310;SDS011;45078;51.654;21.250;2023-07-31T11:46:06;3.42;;;1.83;;
59310;SDS011;45078;51.654;21.250;2023-07-31T11:48:36;4.80;;;1.80;;
59310;SDS011;45078;51.654;21.250;2023-07-31T11:51:03;4.57;;;1.67;;
59310;SDS011;45078;51.654;21.250;2023-07-31T11:56:21;3.13;;;1.70;;
59310;SDS011;45078;51.654;21.250;2023-07-31T11:58:49;4.05;;;1.65;;
59310;SDS011;45078;51.654;21.250;2023-07-31T12:01:18;4.50;;;1.80;;
59310;SDS011;45078;51.654;21.250;2023-07-31T12:03:46;2.78;;;1.80;;
59310;SDS011;45078;51.654;21.250;2023-07-31T12:06:12;3.78;;;2.00;;
59310;SDS011;45078;51.654;21.250;2023-07-31T12:08:38;5.30;;;2.00;;
59310;SDS011;45078;51.654;21.250;2023-07-31T12:11:04;4.18;;;1.80;;
59310;SDS011;45078;51.654;21.250;2023-07-31T12:13:32;4.70;;;1.90;;
59310;SDS011;45078;51.654;21.250;2023-07-31T12:15:59;3.60;;;1.77;;
59310;SDS011;45078;51.654;21.250;2023-07-31T12:18:28;3.35;;;1.80;;
59310;SDS011;45078;51.654;21.250;2023-07-31T12:20:58;4.70;;;1.70;;
59310;SDS011;45078;51.654;21.250;2023-07-31T12:23:29;3.03;;;1.40;;
59310;SDS011;45078;51.654;21.250;2023-07-31T12:26:15;2.90;;;1.50;;
59310;SDS011;45078;51.654;21.250;2023-07-31T12:31:09;3.13;;;1.38;;
59310;SDS011;45078;51.654;21.250;2023-07-31T12:33:37;3.80;;;1.70;;
59310;SDS011;45078;51.654;21.250;2023-07-31T12:36:10;2.78;;;1.45;;
59310;SDS011;45078;51.654;21.250;2023-07-31T12:38:37;4.72;;;1.70;;
59310;SDS011;45078;51.654;21.250;2023-07-31T12:41:03;8.15;;;1.80;;
59310;SDS011;45078;51.654;21.250;2023-07-31T12:43:29;3.05;;;1.55;;
59310;SDS011;45078;51.654;21.250;2023-07-31T12:45:54;3.17;;;1.50;;
59310;SDS011;45078;51.654;21.250;2023-07-31T12:48:24;5.05;;;1.80;;
59310;SDS011;45078;51.654;21.250;2023-07-31T12:50:50;1.92;;;1.30;;
59310;SDS011;45078;51.654;21.250;2023-07-31T12:53:15;7.03;;;1.52;;
59310;SDS011;45078;51.654;21.250;2023-07-31T12:55:41;2.97;;;1.50;;
59310;SDS011;45078;51.654;21.250;2023-07-31T12:58:07;3.78;;;1.58;;
59310;SDS011;45078;51.654;21.250;2023-07-31T13:00:33;4.43;;;1.58;;
59310;SDS011;45078;51.654;21.250;2023-07-31T13:02:59;3.75;;;1.55;;
59310;SDS011;45078;51.654;21.250;2023-07-31T13:05:26;2.53;;;1.48;;
59310;SDS011;45078;51.654;21.250;2023-07-31T13:07:52;3.00;;;1.35;;
59310;SDS011;45078;51.654;21.250;2023-07-31T13:10:18;3.95;;;1.45;;
59310;SDS011;45078;51.654;21.250;2023-07-31T13:12:44;2.80;;;1.67;;
59310;SDS011;45078;51.654;21.250;2023-07-31T13:15:09;2.97;;;1.48;;
59310;SDS011;45078;51.654;21.250;2023-07-31T13:17:35;2.20;;;1.40;;
59310;SDS011;45078;51.654;21.250;2023-07-31T13:20:02;3.10;;;1.50;;
59310;SDS011;45078;51.654;21.250;2023-07-31T13:22:29;2.63;;;1.50;;
59310;SDS011;45078;51.654;21.250;2023-07-31T13:24:54;5.53;;;1.63;;
59310;SDS011;45078;51.654;21.250;2023-07-31T13:27:20;3.15;;;1.50;;
59310;SDS011;45078;51.654;21.250;2023-07-31T13:29:49;3.53;;;1.50;;
59310;SDS011;45078;51.654;21.250;2023-07-31T13:32:18;3.53;;;1.37;;
59310;SDS011;45078;51.654;21.250;2023-07-31T13:34:45;2.22;;;1.38;;
59310;SDS011;45078;51.654;21.250;2023-07-31T13:37:12;2.28;;;1.52;;
59310;SDS011;45078;51.654;21.250;2023-07-31T13:39:38;3.95;;;1.50;;
59310;SDS011;45078;51.654;21.250;2023-07-31T13:42:05;4.13;;;1.60;;
59310;SDS011;45078;51.654;21.250;2023-07-31T13:44:33;2.67;;;1.98;;
59310;SDS011;45078;51.654;21.250;2023-07-31T13:47:02;3.45;;;1.40;;
59310;SDS011;45078;51.654;21.250;2023-07-31T13:49:28;1.98;;;1.23;;
59310;SDS011;45078;51.654;21.250;2023-07-31T13:51:55;2.83;;;1.30;;
59310;SDS011;45078;51.654;21.250;2023-07-31T13:54:22;2.25;;;1.23;;
59310;SDS011;45078;51.654;21.250;2023-07-31T13:56:48;4.15;;;1.23;;
59310;SDS011;45078;51.654;21.250;2023-07-31T13:59:14;2.03;;;1.15;;
59310;SDS011;45078;51.654;21.250;2023-07-31T14:01:43;3.28;;;1.35;;
59310;SDS011;45078;51.654;21.250;2023-07-31T14:04:09;2.95;;;1.42;;
59310;SDS011;45078;51.654;21.250;2023-07-31T14:06:35;3.83;;;1.30;;
59310;SDS011;45078;51.654;21.250;2023-07-31T14:09:01;4.47;;;1.40;;
59310;SDS011;45078;51.654;21.250;2023-07-31T14:11:27;5.13;;;1.45;;
59310;SDS011;45078;51.654;21.250;2023-07-31T14:13:53;2.90;;;1.48;;
59310;SDS011;45078;51.654;21.250;2023-07-31T14:16:21;2.45;;;1.10;;
59310;SDS011;45078;51.654;21.250;2023-07-31T14:18:47;2.63;;;1.30;;
59310;SDS011;45078;51.654;21.250;2023-07-31T14:21:12;2.83;;;1.27;;
59310;SDS011;45078;51.654;21.250;2023-07-31T14:23:39;4.47;;;1.30;;
59310;SDS011;45078;51.654;21.250;2023-07-31T14:26:05;2.03;;;1.15;;
59310;SDS011;45078;51.654;21.250;2023-07-31T14:28:30;1.75;;;1.05;;
59310;SDS011;45078;51.654;21.250;2023-07-31T14:30:56;11.82;;;2.13;;
59310;SDS011;45078;51.654;21.250;2023-07-31T14:33:22;3.75;;;1.25;;
59310;SDS011;45078;51.654;21.250;2023-07-31T14:35:48;3.40;;;1.45;;
59310;SDS011;45078;51.654;21.250;2023-07-31T14:38:14;3.05;;;1.23;;
59310;SDS011;45078;51.654;21.250;2023-07-31T14:40:40;4.93;;;1.13;;
59310;SDS011;45078;51.654;21.250;2023-07-31T14:43:06;4.82;;;1.40;;
59310;SDS011;45078;51.654;21.250;2023-07-31T14:45:32;4.05;;;1.15;;
59310;SDS011;45078;51.654;21.250;2023-07-31T14:47:58;2.88;;;1.27;;
59310;SDS011;45078;51.654;21.250;2023-07-31T14:50:23;4.25;;;1.35;;